X  Schlie├čen METAR Luftfahrt Wetterdaten     EDNY Friedrichshafen Airport
Temperatur
9°C Temperatur
9°C Taupunkt
100% Feuchtigkeit



Wind
2 KM/S
1 MPS
0 M/S
1 KTS



Kein Wind
N
Aktuelle Wetterlage

Klar Klar
Luftdruck 1020.92 (hPa) - 30.15 (inHg)
Sichtweite 6.2 (Meile) - 10 (Km)
Flughafen
Flughafen Code EDNY

Position : Friedrichshafen Airport
Entfernung: 40 (Km)

Metar:
EDNY 290220Z AUTO VRB01KT 9999 2600 NCD 09/09 Q1021

Zeit: 29-09-2023 04:20 CEST